sensor_id;sensor_type;location;lat;lon;timestamp;P1;durP1;ratioP1;P2;durP2;ratioP2
11222;SDS011;5668;52.012;8.724;2023-07-30T00:01:21;3.55;;;3.25;;
11222;SDS011;5668;52.012;8.724;2023-07-30T00:03:50;3.25;;;3.05;;
11222;SDS011;5668;52.012;8.724;2023-07-30T00:06:17;4.30;;;3.08;;
11222;SDS011;5668;52.012;8.724;2023-07-30T00:08:44;3.78;;;3.42;;
11222;SDS011;5668;52.012;8.724;2023-07-30T00:11:11;6.82;;;3.65;;
11222;SDS011;5668;52.012;8.724;2023-07-30T00:13:38;3.88;;;3.47;;
11222;SDS011;5668;52.012;8.724;2023-07-30T00:16:06;4.47;;;3.83;;
11222;SDS011;5668;52.012;8.724;2023-07-30T00:18:33;4.60;;;3.78;;
11222;SDS011;5668;52.012;8.724;2023-07-30T00:21:01;4.30;;;3.70;;
11222;SDS011;5668;52.012;8.724;2023-07-30T00:23:29;5.13;;;3.70;;
11222;SDS011;5668;52.012;8.724;2023-07-30T00:25:56;3.83;;;3.33;;
11222;SDS011;5668;52.012;8.724;2023-07-30T00:28:23;3.70;;;3.40;;
11222;SDS011;5668;52.012;8.724;2023-07-30T00:30:50;3.92;;;3.35;;
11222;SDS011;5668;52.012;8.724;2023-07-30T00:33:17;3.40;;;3.10;;
11222;SDS011;5668;52.012;8.724;2023-07-30T00:35:44;3.15;;;2.83;;
11222;SDS011;5668;52.012;8.724;2023-07-30T00:38:13;5.57;;;3.05;;
11222;SDS011;5668;52.012;8.724;2023-07-30T00:40:41;4.43;;;3.08;;
11222;SDS011;5668;52.012;8.724;2023-07-30T00:43:08;5.97;;;3.10;;
11222;SDS011;5668;52.012;8.724;2023-07-30T00:45:35;3.92;;;2.90;;
11222;SDS011;5668;52.012;8.724;2023-07-30T00:48:04;3.60;;;3.08;;
11222;SDS011;5668;52.012;8.724;2023-07-30T00:50:31;3.95;;;2.97;;
11222;SDS011;5668;52.012;8.724;2023-07-30T00:52:59;3.20;;;2.90;;
11222;SDS011;5668;52.012;8.724;2023-07-30T00:55:28;3.53;;;2.90;;
11222;SDS011;5668;52.012;8.724;2023-07-30T00:57:55;3.65;;;2.70;;
11222;SDS011;5668;52.012;8.724;2023-07-30T01:00:23;3.60;;;2.50;;
11222;SDS011;5668;52.012;8.724;2023-07-30T01:02:51;5.10;;;2.92;;
11222;SDS011;5668;52.012;8.724;2023-07-30T01:05:19;3.55;;;2.63;;
11222;SDS011;5668;52.012;8.724;2023-07-30T01:07:46;2.60;;;2.40;;
11222;SDS011;5668;52.012;8.724;2023-07-30T01:10:14;2.72;;;2.50;;
11222;SDS011;5668;52.012;8.724;2023-07-30T01:12:44;4.22;;;2.70;;
11222;SDS011;5668;52.012;8.724;2023-07-30T01:15:12;4.50;;;2.70;;
11222;SDS011;5668;52.012;8.724;2023-07-30T01:17:40;4.30;;;2.80;;
11222;SDS011;5668;52.012;8.724;2023-07-30T01:20:07;3.75;;;2.22;;
11222;SDS011;5668;52.012;8.724;2023-07-30T01:22:37;4.45;;;2.28;;
11222;SDS011;5668;52.012;8.724;2023-07-30T01:25:05;2.75;;;2.55;;
11222;SDS011;5668;52.012;8.724;2023-07-30T01:27:33;4.38;;;2.33;;
11222;SDS011;5668;52.012;8.724;2023-07-30T01:30:06;4.70;;;2.70;;
11222;SDS011;5668;52.012;8.724;2023-07-30T01:32:44;4.20;;;2.33;;
11222;SDS011;5668;52.012;8.724;2023-07-30T01:35:15;2.38;;;2.17;;
11222;SDS011;5668;52.012;8.724;2023-07-30T01:37:45;4.43;;;2.10;;
11222;SDS011;5668;52.012;8.724;2023-07-30T01:40:14;4.13;;;2.20;;
11222;SDS011;5668;52.012;8.724;2023-07-30T01:42:42;2.95;;;2.15;;
11222;SDS011;5668;52.012;8.724;2023-07-30T01:45:09;2.47;;;2.20;;
11222;SDS011;5668;52.012;8.724;2023-07-30T01:47:36;4.65;;;2.03;;
11222;SDS011;5668;52.012;8.724;2023-07-30T01:50:04;3.50;;;2.50;;
11222;SDS011;5668;52.012;8.724;2023-07-30T01:52:32;4.30;;;2.58;;
11222;SDS011;5668;52.012;8.724;2023-07-30T01:55:01;6.30;;;2.25;;
11222;SDS011;5668;52.012;8.724;2023-07-30T01:57:29;6.43;;;2.58;;
11222;SDS011;5668;52.012;8.724;2023-07-30T01:59:56;4.63;;;2.22;;
11222;SDS011;5668;52.012;8.724;2023-07-30T02:02:23;5.72;;;2.42;;
11222;SDS011;5668;52.012;8.724;2023-07-30T02:04:50;2.92;;;2.20;;
11222;SDS011;5668;52.012;8.724;2023-07-30T02:07:17;3.70;;;2.28;;
11222;SDS011;5668;52.012;8.724;2023-07-30T02:09:45;3.95;;;2.50;;
11222;SDS011;5668;52.012;8.724;2023-07-30T02:12:13;4.55;;;2.30;;
11222;SDS011;5668;52.012;8.724;2023-07-30T02:14:40;3.78;;;2.40;;
11222;SDS011;5668;52.012;8.724;2023-07-30T02:17:08;4.00;;;2.75;;
11222;SDS011;5668;52.012;8.724;2023-07-30T02:19:35;4.22;;;2.50;;
11222;SDS011;5668;52.012;8.724;2023-07-30T02:22:02;4.70;;;2.75;;
11222;SDS011;5668;52.012;8.724;2023-07-30T02:24:30;5.88;;;2.80;;
11222;SDS011;5668;52.012;8.724;2023-07-30T02:26:57;3.53;;;2.67;;
11222;SDS011;5668;52.012;8.724;2023-07-30T02:29:25;4.38;;;2.55;;
11222;SDS011;5668;52.012;8.724;2023-07-30T02:31:53;4.95;;;3.20;;
11222;SDS011;5668;52.012;8.724;2023-07-30T02:34:20;3.97;;;3.15;;
11222;SDS011;5668;52.012;8.724;2023-07-30T02:36:48;3.42;;;2.92;;
11222;SDS011;5668;52.012;8.724;2023-07-30T02:39:15;4.13;;;3.10;;
11222;SDS011;5668;52.012;8.724;2023-07-30T02:41:43;5.25;;;3.60;;
11222;SDS011;5668;52.012;8.724;2023-07-30T02:44:10;8.35;;;4.05;;
11222;SDS011;5668;52.012;8.724;2023-07-30T02:46:38;3.90;;;3.20;;
11222;SDS011;5668;52.012;8.724;2023-07-30T02:49:06;5.82;;;4.25;;
11222;SDS011;5668;52.012;8.724;2023-07-30T02:51:33;6.43;;;3.80;;
11222;SDS011;5668;52.012;8.724;2023-07-30T02:54:03;5.40;;;3.80;;
11222;SDS011;5668;52.012;8.724;2023-07-30T02:56:32;8.20;;;4.32;;
11222;SDS011;5668;52.012;8.724;2023-07-30T02:58:59;8.27;;;4.40;;
11222;SDS011;5668;52.012;8.724;2023-07-30T03:04:05;9.25;;;5.97;;
11222;SDS011;5668;52.012;8.724;2023-07-30T03:06:32;7.85;;;6.85;;
11222;SDS011;5668;52.012;8.724;2023-07-30T03:08:59;7.50;;;6.80;;
11222;SDS011;5668;52.012;8.724;2023-07-30T03:11:27;9.68;;;8.68;;
11222;SDS011;5668;52.012;8.724;2023-07-30T03:13:55;10.45;;;9.45;;
11222;SDS011;5668;52.012;8.724;2023-07-30T03:16:22;11.32;;;10.25;;
11222;SDS011;5668;52.012;8.724;2023-07-30T03:18:49;11.30;;;10.20;;
11222;SDS011;5668;52.012;8.724;2023-07-30T03:21:17;11.43;;;9.82;;
11222;SDS011;5668;52.012;8.724;2023-07-30T03:23:45;9.52;;;8.52;;
11222;SDS011;5668;52.012;8.724;2023-07-30T03:26:13;11.00;;;7.90;;
11222;SDS011;5668;52.012;8.724;2023-07-30T03:28:40;9.65;;;7.30;;
11222;SDS011;5668;52.012;8.724;2023-07-30T03:31:07;8.82;;;6.95;;
11222;SDS011;5668;52.012;8.724;2023-07-30T03:33:35;8.18;;;6.20;;
11222;SDS011;5668;52.012;8.724;2023-07-30T03:36:04;10.13;;;5.63;;
11222;SDS011;5668;52.012;8.724;2023-07-30T03:38:32;7.07;;;5.15;;
11222;SDS011;5668;52.012;8.724;2023-07-30T03:41:00;5.78;;;4.28;;
11222;SDS011;5668;52.012;8.724;2023-07-30T03:43:27;6.00;;;4.60;;
11222;SDS011;5668;52.012;8.724;2023-07-30T03:45:54;4.82;;;3.92;;
11222;SDS011;5668;52.012;8.724;2023-07-30T03:48:21;5.93;;;3.80;;
11222;SDS011;5668;52.012;8.724;2023-07-30T03:50:48;6.25;;;3.78;;
11222;SDS011;5668;52.012;8.724;2023-07-30T03:53:16;6.25;;;3.25;;
11222;SDS011;5668;52.012;8.724;2023-07-30T03:55:44;4.40;;;3.75;;
11222;SDS011;5668;52.012;8.724;2023-07-30T03:58:11;5.63;;;3.65;;
11222;SDS011;5668;52.012;8.724;2023-07-30T04:00:39;7.35;;;3.70;;
11222;SDS011;5668;52.012;8.724;2023-07-30T04:03:06;4.60;;;3.28;;
11222;SDS011;5668;52.012;8.724;2023-07-30T04:05:33;6.45;;;3.65;;
11222;SDS011;5668;52.012;8.724;2023-07-30T04:08:00;5.70;;;3.97;;
11222;SDS011;5668;52.012;8.724;2023-07-30T04:10:28;5.53;;;3.50;;
11222;SDS011;5668;52.012;8.724;2023-07-30T04:12:56;5.55;;;3.88;;
11222;SDS011;5668;52.012;8.724;2023-07-30T04:15:23;8.73;;;4.60;;
11222;SDS011;5668;52.012;8.724;2023-07-30T04:17:51;4.70;;;3.97;;
11222;SDS011;5668;52.012;8.724;2023-07-30T04:20:18;7.85;;;4.40;;
11222;SDS011;5668;52.012;8.724;2023-07-30T04:22:46;5.75;;;3.88;;
11222;SDS011;5668;52.012;8.724;2023-07-30T04:25:13;4.38;;;3.83;;
11222;SDS011;5668;52.012;8.724;2023-07-30T04:27:41;5.60;;;4.07;;
11222;SDS011;5668;52.012;8.724;2023-07-30T04:30:10;5.32;;;4.13;;
11222;SDS011;5668;52.012;8.724;2023-07-30T04:32:37;5.88;;;3.40;;
11222;SDS011;5668;52.012;8.724;2023-07-30T04:35:05;7.30;;;4.03;;
11222;SDS011;5668;52.012;8.724;2023-07-30T04:37:33;4.38;;;3.40;;
11222;SDS011;5668;52.012;8.724;2023-07-30T04:40:00;6.78;;;3.50;;
11222;SDS011;5668;52.012;8.724;2023-07-30T04:42:27;5.40;;;3.60;;
11222;SDS011;5668;52.012;8.724;2023-07-30T04:44:55;4.72;;;3.40;;
11222;SDS011;5668;52.012;8.724;2023-07-30T04:47:23;7.20;;;3.58;;
11222;SDS011;5668;52.012;8.724;2023-07-30T04:49:50;7.40;;;3.05;;
11222;SDS011;5668;52.012;8.724;2023-07-30T04:52:18;7.05;;;3.33;;
11222;SDS011;5668;52.012;8.724;2023-07-30T04:54:45;5.50;;;3.15;;
11222;SDS011;5668;52.012;8.724;2023-07-30T04:57:12;4.43;;;3.15;;
11222;SDS011;5668;52.012;8.724;2023-07-30T04:59:39;6.45;;;2.63;;
11222;SDS011;5668;52.012;8.724;2023-07-30T05:02:07;3.97;;;2.60;;
11222;SDS011;5668;52.012;8.724;2023-07-30T05:04:35;4.70;;;2.30;;
11222;SDS011;5668;52.012;8.724;2023-07-30T05:07:03;4.55;;;2.60;;
11222;SDS011;5668;52.012;8.724;2023-07-30T05:09:31;3.53;;;2.35;;
11222;SDS011;5668;52.012;8.724;2023-07-30T05:11:58;5.32;;;2.83;;
11222;SDS011;5668;52.012;8.724;2023-07-30T05:14:25;5.07;;;2.78;;
11222;SDS011;5668;52.012;8.724;2023-07-30T05:16:53;5.15;;;2.55;;
11222;SDS011;5668;52.012;8.724;2023-07-30T05:19:20;9.60;;;3.25;;
11222;SDS011;5668;52.012;8.724;2023-07-30T05:21:48;5.60;;;2.60;;
11222;SDS011;5668;52.012;8.724;2023-07-30T05:24:16;5.05;;;3.03;;
11222;SDS011;5668;52.012;8.724;2023-07-30T05:26:43;5.95;;;3.15;;
11222;SDS011;5668;52.012;8.724;2023-07-30T05:29:10;5.82;;;3.17;;
11222;SDS011;5668;52.012;8.724;2023-07-30T05:31:37;6.50;;;2.72;;
11222;SDS011;5668;52.012;8.724;2023-07-30T05:34:04;5.90;;;3.08;;
11222;SDS011;5668;52.012;8.724;2023-07-30T05:36:32;4.22;;;2.85;;
11222;SDS011;5668;52.012;8.724;2023-07-30T05:39:00;6.38;;;2.90;;
11222;SDS011;5668;52.012;8.724;2023-07-30T05:41:27;5.78;;;3.08;;
11222;SDS011;5668;52.012;8.724;2023-07-30T05:43:55;5.93;;;2.70;;
11222;SDS011;5668;52.012;8.724;2023-07-30T05:46:22;6.63;;;3.25;;
11222;SDS011;5668;52.012;8.724;2023-07-30T05:48:49;4.85;;;2.58;;
11222;SDS011;5668;52.012;8.724;2023-07-30T05:51:16;5.07;;;2.92;;
11222;SDS011;5668;52.012;8.724;2023-07-30T05:53:43;6.40;;;3.13;;
11222;SDS011;5668;52.012;8.724;2023-07-30T05:56:12;6.78;;;2.75;;
11222;SDS011;5668;52.012;8.724;2023-07-30T05:58:39;5.65;;;2.47;;
11222;SDS011;5668;52.012;8.724;2023-07-30T06:01:06;7.53;;;2.80;;
11222;SDS011;5668;52.012;8.724;2023-07-30T06:03:34;7.63;;;2.72;;
11222;SDS011;5668;52.012;8.724;2023-07-30T06:06:01;5.72;;;2.75;;
11222;SDS011;5668;52.012;8.724;2023-07-30T06:08:28;5.68;;;2.60;;
11222;SDS011;5668;52.012;8.724;2023-07-30T06:11:00;4.70;;;2.63;;
11222;SDS011;5668;52.012;8.724;2023-07-30T06:13:29;5.55;;;2.78;;
11222;SDS011;5668;52.012;8.724;2023-07-30T06:15:56;4.82;;;2.45;;
11222;SDS011;5668;52.012;8.724;2023-07-30T06:18:24;7.13;;;2.80;;
11222;SDS011;5668;52.012;8.724;2023-07-30T06:20:51;3.75;;;2.58;;
11222;SDS011;5668;52.012;8.724;2023-07-30T06:23:18;4.63;;;2.78;;
11222;SDS011;5668;52.012;8.724;2023-07-30T06:25:45;4.50;;;3.13;;
11222;SDS011;5668;52.012;8.724;2023-07-30T06:28:12;4.20;;;3.20;;
11222;SDS011;5668;52.012;8.724;2023-07-30T06:30:41;6.22;;;3.25;;
11222;SDS011;5668;52.012;8.724;2023-07-30T06:33:08;6.07;;;4.03;;
11222;SDS011;5668;52.012;8.724;2023-07-30T06:35:35;9.35;;;3.90;;
11222;SDS011;5668;52.012;8.724;2023-07-30T06:38:02;7.93;;;3.95;;
11222;SDS011;5668;52.012;8.724;2023-07-30T06:40:32;8.85;;;4.25;;
11222;SDS011;5668;52.012;8.724;2023-07-30T06:42:59;8.82;;;4.00;;
11222;SDS011;5668;52.012;8.724;2023-07-30T06:45:26;6.07;;;4.13;;
11222;SDS011;5668;52.012;8.724;2023-07-30T06:47:55;6.97;;;4.72;;
11222;SDS011;5668;52.012;8.724;2023-07-30T06:50:22;5.82;;;4.25;;
11222;SDS011;5668;52.012;8.724;2023-07-30T06:52:49;8.30;;;4.80;;
11222;SDS011;5668;52.012;8.724;2023-07-30T06:55:16;11.50;;;4.75;;
11222;SDS011;5668;52.012;8.724;2023-07-30T06:57:44;9.15;;;5.05;;
11222;SDS011;5668;52.012;8.724;2023-07-30T07:00:11;9.07;;;5.50;;
11222;SDS011;5668;52.012;8.724;2023-07-30T07:02:43;8.68;;;5.80;;
11222;SDS011;5668;52.012;8.724;2023-07-30T07:05:12;11.05;;;5.68;;
11222;SDS011;5668;52.012;8.724;2023-07-30T07:07:40;10.07;;;5.32;;
11222;SDS011;5668;52.012;8.724;2023-07-30T07:10:08;10.13;;;5.45;;
11222;SDS011;5668;52.012;8.724;2023-07-30T07:12:38;8.82;;;4.60;;
11222;SDS011;5668;52.012;8.724;2023-07-30T07:15:06;8.35;;;4.72;;
11222;SDS011;5668;52.012;8.724;2023-07-30T07:17:33;8.02;;;4.85;;
11222;SDS011;5668;52.012;8.724;2023-07-30T07:20:01;9.13;;;4.85;;
11222;SDS011;5668;52.012;8.724;2023-07-30T07:22:33;6.43;;;4.70;;
11222;SDS011;5668;52.012;8.724;2023-07-30T07:25:00;8.70;;;4.53;;
11222;SDS011;5668;52.012;8.724;2023-07-30T07:27:27;8.30;;;4.32;;
11222;SDS011;5668;52.012;8.724;2023-07-30T07:29:55;8.82;;;4.28;;
11222;SDS011;5668;52.012;8.724;2023-07-30T07:32:22;8.68;;;5.18;;
11222;SDS011;5668;52.012;8.724;2023-07-30T07:34:49;7.75;;;4.55;;
11222;SDS011;5668;52.012;8.724;2023-07-30T07:37:16;9.25;;;5.20;;
11222;SDS011;5668;52.012;8.724;2023-07-30T07:39:46;9.65;;;5.72;;
11222;SDS011;5668;52.012;8.724;2023-07-30T07:42:13;7.95;;;6.45;;
11222;SDS011;5668;52.012;8.724;2023-07-30T07:44:40;8.93;;;7.13;;
11222;SDS011;5668;52.012;8.724;2023-07-30T07:47:10;10.82;;;8.30;;
11222;SDS011;5668;52.012;8.724;2023-07-30T07:49:38;10.27;;;8.20;;
11222;SDS011;5668;52.012;8.724;2023-07-30T07:52:05;12.63;;;8.52;;
11222;SDS011;5668;52.012;8.724;2023-07-30T07:54:33;9.80;;;8.05;;
11222;SDS011;5668;52.012;8.724;2023-07-30T07:57:03;9.88;;;8.98;;
11222;SDS011;5668;52.012;8.724;2023-07-30T07:59:30;9.50;;;8.52;;
11222;SDS011;5668;52.012;8.724;2023-07-30T08:01:58;9.93;;;8.88;;
11222;SDS011;5668;52.012;8.724;2023-07-30T08:04:25;9.77;;;8.50;;
11222;SDS011;5668;52.012;8.724;2023-07-30T08:06:52;10.25;;;8.25;;
11222;SDS011;5668;52.012;8.724;2023-07-30T08:09:20;10.35;;;8.82;;
11222;SDS011;5668;52.012;8.724;2023-07-30T08:11:47;12.93;;;9.40;;
11222;SDS011;5668;52.012;8.724;2023-07-30T08:14:16;12.70;;;9.35;;
11222;SDS011;5668;52.012;8.724;2023-07-30T08:16:43;12.45;;;9.80;;
11222;SDS011;5668;52.012;8.724;2023-07-30T08:19:10;11.40;;;10.20;;
11222;SDS011;5668;52.012;8.724;2023-07-30T08:21:38;15.45;;;10.23;;
11222;SDS011;5668;52.012;8.724;2023-07-30T08:24:05;13.18;;;10.18;;
11222;SDS011;5668;52.012;8.724;2023-07-30T08:26:32;10.27;;;9.02;;
11222;SDS011;5668;52.012;8.724;2023-07-30T08:28:59;11.35;;;9.15;;
11222;SDS011;5668;52.012;8.724;2023-07-30T08:31:28;10.85;;;9.60;;
11222;SDS011;5668;52.012;8.724;2023-07-30T08:33:55;14.98;;;9.30;;
11222;SDS011;5668;52.012;8.724;2023-07-30T08:36:22;11.38;;;8.95;;
11222;SDS011;5668;52.012;8.724;2023-07-30T08:38:50;11.98;;;9.57;;
11222;SDS011;5668;52.012;8.724;2023-07-30T08:41:17;14.45;;;9.35;;
11222;SDS011;5668;52.012;8.724;2023-07-30T08:43:44;11.85;;;9.10;;
11222;SDS011;5668;52.012;8.724;2023-07-30T08:46:13;13.45;;;9.02;;
11222;SDS011;5668;52.012;8.724;2023-07-30T08:48:42;13.48;;;9.60;;
11222;SDS011;5668;52.012;8.724;2023-07-30T08:51:09;13.85;;;10.20;;
11222;SDS011;5668;52.012;8.724;2023-07-30T08:53:38;12.75;;;9.80;;
11222;SDS011;5668;52.012;8.724;2023-07-30T08:56:07;12.85;;;9.98;;
11222;SDS011;5668;52.012;8.724;2023-07-30T08:58:35;12.05;;;9.10;;
11222;SDS011;5668;52.012;8.724;2023-07-30T09:01:05;13.13;;;9.38;;
11222;SDS011;5668;52.012;8.724;2023-07-30T09:03:34;11.38;;;9.13;;
11222;SDS011;5668;52.012;8.724;2023-07-30T09:06:06;13.80;;;10.50;;
11222;SDS011;5668;52.012;8.724;2023-07-30T09:08:33;12.32;;;10.80;;
11222;SDS011;5668;52.012;8.724;2023-07-30T09:11:06;14.48;;;12.68;;
11222;SDS011;5668;52.012;8.724;2023-07-30T09:13:36;16.27;;;14.00;;
11222;SDS011;5668;52.012;8.724;2023-07-30T09:16:07;16.83;;;14.93;;
11222;SDS011;5668;52.012;8.724;2023-07-30T09:18:39;19.88;;;14.50;;
11222;SDS011;5668;52.012;8.724;2023-07-30T09:21:09;15.77;;;13.82;;
11222;SDS011;5668;52.012;8.724;2023-07-30T09:23:40;18.52;;;14.07;;
11222;SDS011;5668;52.012;8.724;2023-07-30T09:26:08;16.00;;;13.80;;
11222;SDS011;5668;52.012;8.724;2023-07-30T09:28:35;20.65;;;13.18;;
11222;SDS011;5668;52.012;8.724;2023-07-30T09:31:03;17.33;;;13.77;;
11222;SDS011;5668;52.012;8.724;2023-07-30T09:33:31;15.65;;;12.82;;
11222;SDS011;5668;52.012;8.724;2023-07-30T09:36:01;15.82;;;13.18;;
11222;SDS011;5668;52.012;8.724;2023-07-30T09:38:29;17.10;;;12.75;;
11222;SDS011;5668;52.012;8.724;2023-07-30T09:40:59;14.88;;;12.55;;
11222;SDS011;5668;52.012;8.724;2023-07-30T09:43:28;15.00;;;13.30;;
11222;SDS011;5668;52.012;8.724;2023-07-30T09:46:00;16.10;;;14.05;;
11222;SDS011;5668;52.012;8.724;2023-07-30T09:48:29;17.95;;;15.98;;
11222;SDS011;5668;52.012;8.724;2023-07-30T09:50:57;17.33;;;14.88;;
11222;SDS011;5668;52.012;8.724;2023-07-30T09:53:27;18.33;;;14.80;;
11222;SDS011;5668;52.012;8.724;2023-07-30T09:55:59;16.13;;;14.40;;
11222;SDS011;5668;52.012;8.724;2023-07-30T09:58:27;16.92;;;14.90;;
11222;SDS011;5668;52.012;8.724;2023-07-30T10:00:55;16.65;;;14.35;;
11222;SDS011;5668;52.012;8.724;2023-07-30T10:03:24;16.05;;;14.10;;
11222;SDS011;5668;52.012;8.724;2023-07-30T10:05:51;21.23;;;14.45;;
11222;SDS011;5668;52.012;8.724;2023-07-30T10:08:21;15.35;;;13.77;;
11222;SDS011;5668;52.012;8.724;2023-07-30T10:10:52;17.63;;;14.95;;
11222;SDS011;5668;52.012;8.724;2023-07-30T10:13:21;16.40;;;13.88;;
11222;SDS011;5668;52.012;8.724;2023-07-30T10:15:49;14.45;;;12.70;;
11222;SDS011;5668;52.012;8.724;2023-07-30T10:18:17;14.13;;;11.68;;
11222;SDS011;5668;52.012;8.724;2023-07-30T10:20:46;14.70;;;11.13;;
11222;SDS011;5668;52.012;8.724;2023-07-30T10:23:19;12.77;;;10.50;;
11222;SDS011;5668;52.012;8.724;2023-07-30T10:25:47;13.60;;;10.25;;
11222;SDS011;5668;52.012;8.724;2023-07-30T10:28:27;11.50;;;8.80;;
11222;SDS011;5668;52.012;8.724;2023-07-30T10:31:00;10.40;;;8.27;;
11222;SDS011;5668;52.012;8.724;2023-07-30T10:33:44;9.80;;;8.80;;
11222;SDS011;5668;52.012;8.724;2023-07-30T10:36:14;10.52;;;8.65;;
11222;SDS011;5668;52.012;8.724;2023-07-30T10:38:44;9.95;;;8.23;;
11222;SDS011;5668;52.012;8.724;2023-07-30T10:41:12;11.00;;;8.95;;
11222;SDS011;5668;52.012;8.724;2023-07-30T10:43:43;11.25;;;9.93;;
11222;SDS011;5668;52.012;8.724;2023-07-30T10:46:14;13.68;;;10.63;;
11222;SDS011;5668;52.012;8.724;2023-07-30T10:48:44;12.23;;;10.13;;
11222;SDS011;5668;52.012;8.724;2023-07-30T10:51:14;12.10;;;9.88;;
11222;SDS011;5668;52.012;8.724;2023-07-30T10:53:42;11.60;;;9.75;;
11222;SDS011;5668;52.012;8.724;2023-07-30T10:56:10;12.32;;;9.52;;
11222;SDS011;5668;52.012;8.724;2023-07-30T10:58:38;10.68;;;9.10;;
11222;SDS011;5668;52.012;8.724;2023-07-30T11:01:07;10.98;;;8.13;;
11222;SDS011;5668;52.012;8.724;2023-07-30T11:03:35;13.60;;;9.80;;
11222;SDS011;5668;52.012;8.724;2023-07-30T11:06:03;11.23;;;8.90;;
11222;SDS011;5668;52.012;8.724;2023-07-30T11:08:33;10.73;;;8.95;;
11222;SDS011;5668;52.012;8.724;2023-07-30T11:11:01;13.90;;;9.25;;
11222;SDS011;5668;52.012;8.724;2023-07-30T11:13:29;9.77;;;8.40;;
11222;SDS011;5668;52.012;8.724;2023-07-30T11:16:00;10.13;;;9.02;;
11222;SDS011;5668;52.012;8.724;2023-07-30T11:18:31;10.82;;;9.15;;
11222;SDS011;5668;52.012;8.724;2023-07-30T11:21:03;10.63;;;8.90;;
11222;SDS011;5668;52.012;8.724;2023-07-30T11:23:30;12.50;;;8.40;;
11222;SDS011;5668;52.012;8.724;2023-07-30T11:25:59;12.10;;;8.57;;
11222;SDS011;5668;52.012;8.724;2023-07-30T11:28:27;8.50;;;7.60;;
11222;SDS011;5668;52.012;8.724;2023-07-30T11:30:55;10.18;;;7.80;;
11222;SDS011;5668;52.012;8.724;2023-07-30T11:33:27;10.15;;;7.53;;
11222;SDS011;5668;52.012;8.724;2023-07-30T11:35:56;11.07;;;8.00;;
11222;SDS011;5668;52.012;8.724;2023-07-30T11:38:26;11.25;;;7.40;;
11222;SDS011;5668;52.012;8.724;2023-07-30T11:40:54;10.23;;;7.65;;
11222;SDS011;5668;52.012;8.724;2023-07-30T11:43:22;10.63;;;7.90;;
11222;SDS011;5668;52.012;8.724;2023-07-30T11:45:53;11.80;;;7.57;;
11222;SDS011;5668;52.012;8.724;2023-07-30T11:48:37;9.10;;;6.32;;
11222;SDS011;5668;52.012;8.724;2023-07-30T11:51:06;8.50;;;5.13;;
11222;SDS011;5668;52.012;8.724;2023-07-30T11:53:46;8.23;;;5.10;;
11222;SDS011;5668;52.012;8.724;2023-07-30T11:56:16;7.80;;;4.72;;
11222;SDS011;5668;52.012;8.724;2023-07-30T11:58:44;7.78;;;4.70;;
11222;SDS011;5668;52.012;8.724;2023-07-30T12:01:12;8.15;;;5.20;;
11222;SDS011;5668;52.012;8.724;2023-07-30T12:03:40;8.43;;;4.60;;
11222;SDS011;5668;52.012;8.724;2023-07-30T12:06:08;7.20;;;4.38;;
11222;SDS011;5668;52.012;8.724;2023-07-30T12:08:37;7.85;;;4.88;;
11222;SDS011;5668;52.012;8.724;2023-07-30T12:11:04;7.35;;;4.07;;
11222;SDS011;5668;52.012;8.724;2023-07-30T12:13:33;8.13;;;4.00;;
11222;SDS011;5668;52.012;8.724;2023-07-30T12:16:08;5.63;;;3.47;;
11222;SDS011;5668;52.012;8.724;2023-07-30T12:18:37;6.70;;;3.47;;
11222;SDS011;5668;52.012;8.724;2023-07-30T12:21:04;5.47;;;3.80;;
11222;SDS011;5668;52.012;8.724;2023-07-30T12:23:34;5.97;;;3.80;;
11222;SDS011;5668;52.012;8.724;2023-07-30T12:26:02;5.25;;;3.47;;
11222;SDS011;5668;52.012;8.724;2023-07-30T12:28:30;5.20;;;3.38;;
11222;SDS011;5668;52.012;8.724;2023-07-30T12:30:58;7.43;;;3.13;;
11222;SDS011;5668;52.012;8.724;2023-07-30T12:33:26;5.38;;;3.40;;
11222;SDS011;5668;52.012;8.724;2023-07-30T12:35:53;6.57;;;3.00;;
11222;SDS011;5668;52.012;8.724;2023-07-30T12:38:20;6.70;;;3.40;;
11222;SDS011;5668;52.012;8.724;2023-07-30T12:40:49;6.13;;;3.10;;
11222;SDS011;5668;52.012;8.724;2023-07-30T12:43:16;5.88;;;3.10;;
11222;SDS011;5668;52.012;8.724;2023-07-30T12:45:46;6.05;;;3.30;;
11222;SDS011;5668;52.012;8.724;2023-07-30T12:48:13;6.53;;;3.55;;
11222;SDS011;5668;52.012;8.724;2023-07-30T12:50:40;6.00;;;3.35;;
11222;SDS011;5668;52.012;8.724;2023-07-30T12:53:07;6.82;;;3.00;;
11222;SDS011;5668;52.012;8.724;2023-07-30T12:55:34;7.05;;;3.17;;
11222;SDS011;5668;52.012;8.724;2023-07-30T12:58:04;6.18;;;3.28;;
11222;SDS011;5668;52.012;8.724;2023-07-30T13:00:32;5.18;;;2.50;;
11222;SDS011;5668;52.012;8.724;2023-07-30T13:03:00;5.93;;;2.60;;
11222;SDS011;5668;52.012;8.724;2023-07-30T13:05:27;5.13;;;2.20;;
11222;SDS011;5668;52.012;8.724;2023-07-30T13:07:54;6.28;;;2.45;;
11222;SDS011;5668;52.012;8.724;2023-07-30T13:10:22;8.43;;;2.13;;
11222;SDS011;5668;52.012;8.724;2023-07-30T13:12:49;5.00;;;2.20;;
11222;SDS011;5668;52.012;8.724;2023-07-30T13:15:17;4.38;;;2.28;;
11222;SDS011;5668;52.012;8.724;2023-07-30T13:17:45;3.47;;;1.90;;
11222;SDS011;5668;52.012;8.724;2023-07-30T13:20:12;6.10;;;2.25;;
11222;SDS011;5668;52.012;8.724;2023-07-30T13:22:40;5.47;;;2.00;;
11222;SDS011;5668;52.012;8.724;2023-07-30T13:25:07;6.63;;;2.10;;
11222;SDS011;5668;52.012;8.724;2023-07-30T13:27:34;5.50;;;1.60;;
11222;SDS011;5668;52.012;8.724;2023-07-30T13:30:02;4.97;;;1.70;;
11222;SDS011;5668;52.012;8.724;2023-07-30T13:32:30;3.05;;;1.50;;
11222;SDS011;5668;52.012;8.724;2023-07-30T13:34:58;3.22;;;1.63;;
11222;SDS011;5668;52.012;8.724;2023-07-30T13:37:25;6.85;;;1.80;;
11222;SDS011;5668;52.012;8.724;2023-07-30T13:39:52;5.97;;;2.22;;
11222;SDS011;5668;52.012;8.724;2023-07-30T13:42:19;7.13;;;2.00;;
11222;SDS011;5668;52.012;8.724;2023-07-30T13:44:46;5.28;;;1.85;;
11222;SDS011;5668;52.012;8.724;2023-07-30T13:47:13;5.40;;;1.90;;
11222;SDS011;5668;52.012;8.724;2023-07-30T13:49:42;4.53;;;1.77;;
11222;SDS011;5668;52.012;8.724;2023-07-30T13:52:09;7.95;;;2.05;;
11222;SDS011;5668;52.012;8.724;2023-07-30T13:54:36;5.45;;;1.67;;
11222;SDS011;5668;52.012;8.724;2023-07-30T13:57:04;5.75;;;1.60;;
11222;SDS011;5668;52.012;8.724;2023-07-30T13:59:31;3.13;;;1.52;;
11222;SDS011;5668;52.012;8.724;2023-07-30T14:01:59;3.65;;;1.55;;
11222;SDS011;5668;52.012;8.724;2023-07-30T14:04:26;2.75;;;1.42;;
11222;SDS011;5668;52.012;8.724;2023-07-30T14:06:54;3.20;;;1.40;;
11222;SDS011;5668;52.012;8.724;2023-07-30T14:09:21;2.80;;;1.30;;
11222;SDS011;5668;52.012;8.724;2023-07-30T14:11:52;3.20;;;1.17;;
11222;SDS011;5668;52.012;8.724;2023-07-30T14:14:19;2.58;;;1.23;;
11222;SDS011;5668;52.012;8.724;2023-07-30T14:16:48;3.28;;;1.10;;
11222;SDS011;5668;52.012;8.724;2023-07-30T14:19:15;2.15;;;1.00;;
11222;SDS011;5668;52.012;8.724;2023-07-30T14:21:42;2.03;;;1.17;;
11222;SDS011;5668;52.012;8.724;2023-07-30T14:24:11;3.58;;;1.15;;
11222;SDS011;5668;52.012;8.724;2023-07-30T14:26:38;2.40;;;1.10;;
11222;SDS011;5668;52.012;8.724;2023-07-30T14:29:06;1.77;;;1.10;;
11222;SDS011;5668;52.012;8.724;2023-07-30T14:31:33;1.65;;;1.00;;
11222;SDS011;5668;52.012;8.724;2023-07-30T14:34:00;2.47;;;1.60;;
11222;SDS011;5668;52.012;8.724;2023-07-30T14:36:28;1.85;;;1.10;;
11222;SDS011;5668;52.012;8.724;2023-07-30T14:38:55;2.92;;;1.40;;
11222;SDS011;5668;52.012;8.724;2023-07-30T14:41:24;2.60;;;1.40;;
11222;SDS011;5668;52.012;8.724;2023-07-30T14:43:51;3.10;;;1.17;;
11222;SDS011;5668;52.012;8.724;2023-07-30T14:46:18;2.95;;;1.33;;
11222;SDS011;5668;52.012;8.724;2023-07-30T14:48:45;2.92;;;1.50;;
11222;SDS011;5668;52.012;8.724;2023-07-30T14:51:13;3.40;;;1.60;;
11222;SDS011;5668;52.012;8.724;2023-07-30T14:53:41;2.88;;;1.40;;
11222;SDS011;5668;52.012;8.724;2023-07-30T14:56:08;3.63;;;1.50;;
11222;SDS011;5668;52.012;8.724;2023-07-30T14:58:37;4.30;;;1.48;;
11222;SDS011;5668;52.012;8.724;2023-07-30T15:01:04;4.50;;;1.30;;
11222;SDS011;5668;52.012;8.724;2023-07-30T15:03:31;2.30;;;1.30;;